METAR AND TAF INFORMATION
METAR FOR KSTL
ADDS - METARS form results

(0449 UTC 09 August 2020)
Data provider http://aviationweather.gov/metar/data/
 
METAR text: KSTL 090444Z 10009G22KT 2SM R30R/5000VP6000FT +TSRA BR BKN024 OVC050CB 24/22 A3011 RMK AO2 PK WND 11029/0433 LTG DSNT ALQDS RAB00 CONS LTGICCCCG ALQDS TS ALQDS MOV E P0089 T02390217 $
Conditions at: KSTL (ST. LOUIS , MO, US) observed 0444 UTC 09 August 2020
Temperature: 23.9°C (75°F)
Dewpoint: 21.7°C (71°F) [RH = 88%]
Pressure (altimeter): 30.11 inches Hg (1019.7 mb)
Winds: from the E (100 degrees) at 10 MPH (9 knots; 4.6 m/s)
gusting to 25 MPH (22 knots; 11.3 m/s)
Visibility: 2.00 miles (3.22 km)
Ceiling: 2400 feet AGL
Clouds: broken clouds at 2400 feet AGL
overcast cloud deck at 5000 feet AGL
Weather: +TSRA BR  (heavy rain associated with thunderstorm(s), mist)
SOME DATA ABOVE MAY BE INACCURATE!!!
"$" is an indication the sensor requires maintenance

METAR text: KSTL 090439Z 11014G29KT 1 1/2SM R30R/5000VP6000FT +TSRA BKN021 OVC050CB 24/21 A3010 RMK AO2 PK WND 11029/0433 LTG DSNT W-N RAB00 CONS LTGICCCCG ALQDS TS ALQDS MOV E P0077 T02390211 $
Conditions at: KSTL (ST. LOUIS , MO, US) observed 0439 UTC 09 August 2020
Temperature: 23.9°C (75°F)
Dewpoint: 21.1°C (70°F) [RH = 84%]
Pressure (altimeter): 30.10 inches Hg (1019.4 mb)
Winds: from the ESE (110 degrees) at 16 MPH (14 knots; 7.2 m/s)
gusting to 33 MPH (29 knots; 14.9 m/s)
Visibility: 1.50 miles (2.41 km)
Ceiling: 2100 feet AGL
Clouds: broken clouds at 2100 feet AGL
overcast cloud deck at 5000 feet AGL
Weather: +TSRA  (heavy rain associated with thunderstorm(s))
SOME DATA ABOVE MAY BE INACCURATE!!!
"$" is an indication the sensor requires maintenance

METAR text: KSTL 090432Z 09018G24KT 3/4SM R30R/6000VP6000FT +TSRA BR BKN023 OVC050CB 24/23 A3009 RMK AO2 LTG DSNT W-N RAB00 CONS LTGICCCCG ALQDS TS ALQDS MOV E P0049 T02440228 $
Conditions at: KSTL (ST. LOUIS , MO, US) observed 0432 UTC 09 August 2020
Temperature: 24.4°C (76°F)
Dewpoint: 22.8°C (73°F) [RH = 91%]
Pressure (altimeter): 30.09 inches Hg (1019.0 mb)
Winds: from the E (90 degrees) at 21 MPH (18 knots; 9.3 m/s)
gusting to 28 MPH (24 knots; 12.3 m/s)
Visibility: 0.75 miles (1.21 km)
Ceiling: 2300 feet AGL
Clouds: broken clouds at 2300 feet AGL
overcast cloud deck at 5000 feet AGL
Weather: +TSRA BR  (heavy rain associated with thunderstorm(s), mist)
SOME DATA ABOVE MAY BE INACCURATE!!!
"$" is an indication the sensor requires maintenance

METAR text: KSTL 090426Z 09009KT 1SM R30R/P6000FT +TSRA BR FEW023 BKN049CB OVC080 26/23 A3012 RMK AO2 LTG DSNT W-N RAB00 CONS LTGICCCCG ALQDS TS ALQDS MOV E P0011 T02560233 $
Conditions at: KSTL (ST. LOUIS , MO, US) observed 0426 UTC 09 August 2020
Temperature: 25.6°C (78°F)
Dewpoint: 23.3°C (74°F) [RH = 87%]
Pressure (altimeter): 30.12 inches Hg (1020.1 mb)
Winds: from the E (90 degrees) at 10 MPH (9 knots; 4.6 m/s)
Visibility: 1.00 miles (1.61 km)
Ceiling: 4900 feet AGL
Clouds: few clouds at 2300 feet AGL
broken clouds at 4900 feet AGL
overcast cloud deck at 8000 feet AGL
Weather: +TSRA BR  (heavy rain associated with thunderstorm(s), mist)
SOME DATA ABOVE MAY BE INACCURATE!!!
"$" is an indication the sensor requires maintenance

METAR text: KSTL 090421Z COR 08006KT 3SM +TSRA BR FEW023 BKN049CB OVC080 26/23 A3012 RMK AO2 LTG DSNT W-N RAB00 PRESRR CONS LTGICCCCG ALQDS TS ALQDS MOV E P0006 T02560233 $
Conditions at: KSTL (ST. LOUIS , MO, US) observed 0421 UTC 09 August 2020
Temperature: 25.6°C (78°F)
Dewpoint: 23.3°C (74°F) [RH = 87%]
Pressure (altimeter): 30.12 inches Hg (1020.1 mb)
Winds: from the E (80 degrees) at 7 MPH (6 knots; 3.1 m/s)
Visibility: 3 miles ( 5 km)
Ceiling: 4900 feet AGL
Clouds: few clouds at 2300 feet AGL
broken clouds at 4900 feet AGL
overcast cloud deck at 8000 feet AGL
Weather: +TSRA BR  (heavy rain associated with thunderstorm(s), mist)
SOME DATA ABOVE MAY BE INACCURATE!!!
"$" is an indication the sensor requires maintenance

METAR text: KSTL 090417Z 07007KT 4SM -TSRA BR SCT055CB BKN080 OVC110 26/23 A3010 RMK AO2 LTG DSNT W-N RAB00 PRESRR CONS LTGICCCCG SW-N TS SW-N MOV E P0002 T02560233 $
Conditions at: KSTL (ST. LOUIS , MO, US) observed 0417 UTC 09 August 2020
Temperature: 25.6°C (78°F)
Dewpoint: 23.3°C (74°F) [RH = 87%]
Pressure (altimeter): 30.10 inches Hg (1019.4 mb)
Winds: from the ENE (70 degrees) at 8 MPH (7 knots; 3.6 m/s)
Visibility: 4 miles ( 6 km)
Ceiling: 8000 feet AGL
Clouds: scattered clouds at 5500 feet AGL
broken clouds at 8000 feet AGL
overcast cloud deck at 11000 feet AGL
Weather: -TSRA BR  (light rain associated with thunderstorm(s), mist)
SOME DATA ABOVE MAY BE INACCURATE!!!
"$" is an indication the sensor requires maintenance

METAR text: KSTL 090351Z 12011KT 10SM TS SCT055CB BKN080 OVC110 26/23 A3007 RMK AO2 LTG DSNT W-NE RAE19 TSB34 SLP171 CONS LTGICCCCG W-N TS W-N MOV SE P0001 T02610233 $
Conditions at: KSTL (ST. LOUIS , MO, US) observed 0351 UTC 09 August 2020
Temperature: 26.1°C (79°F)
Dewpoint: 23.3°C (74°F) [RH = 85%]
Pressure (altimeter): 30.07 inches Hg (1018.4 mb)
[Sea-level pressure: 1017.1 mb]
Winds: from the ESE (120 degrees) at 13 MPH (11 knots; 5.7 m/s)
Visibility: 10 or more miles (16+ km)
Ceiling: 8000 feet AGL
Clouds: scattered clouds at 5500 feet AGL
broken clouds at 8000 feet AGL
overcast cloud deck at 11000 feet AGL
Weather: TS  (thunderstorm)
SOME DATA ABOVE MAY BE INACCURATE!!!
"$" is an indication the sensor requires maintenance

Forecast for: KSTL (ST. LOUIS , MO, US)
Text: KSTL 090432Z 0905/1006 14010KT P6SM VCTS BKN060CB
Forecast period: 0500 to 0600 UTC 09 August 2020
Forecast type: FROM: standard forecast or significant change
Winds: from the SE (140 degrees) at 12 MPH (10 knots; 5.1 m/s)
Visibility: 6 or more miles (10+ km)
Ceiling: 6000 feet AGL
Clouds: broken clouds at 6000 feet AGL
Weather: VCTS  (thunderstorm in vicinity)
Text: TEMPO 0905/0906 31010G25KT 1SM TSRA OVC015CB
Forecast period: 0500 to 0600 UTC 09 August 2020
Forecast type: TEMPORARY: The following changes expected for less than half the time period
Winds: from the NW (310 degrees) at 12 MPH (10 knots; 5.1 m/s)
gusting to 29 MPH (25 knots; 12.9 m/s)
Visibility: 1.00 miles (1.61 km)
Ceiling: 1500 feet AGL
Clouds: overcast cloud deck at 1500 feet AGL
Weather: TSRA  (rain associated with thunderstorm(s))
Text: FM090600 15007KT 5SM -TSRA BKN060CB
Forecast period: 0600 to 1400 UTC 09 August 2020
Forecast type: FROM: standard forecast or significant change
Winds: from the SSE (150 degrees) at 8 MPH (7 knots; 3.6 m/s)
Visibility: 5 miles (8 km)
Ceiling: 6000 feet AGL
Clouds: broken clouds at 6000 feet AGL
Weather: -TSRA  (light rain associated with thunderstorm(s))
Text: TEMPO 0908/0912 2SM +TSRA BKN025CB
Forecast period: 0800 to 1200 UTC 09 August 2020
Forecast type: TEMPORARY: The following changes expected for less than half the time period
Visibility: 2.00 miles (3.22 km)
Ceiling: 2500 feet AGL
Clouds: broken clouds at 2500 feet AGL
Weather: +TSRA  (heavy rain associated with thunderstorm(s))
Text: FM091400 18007KT P6SM BKN040
Forecast period: 1400 UTC 09 August 2020 to 0600 UTC 10 August 2020
Forecast type: FROM: standard forecast or significant change
Winds: from the S (180 degrees) at 8 MPH (7 knots; 3.6 m/s)
Visibility: 6 or more miles (10+ km)
Ceiling: 4000 feet AGL
Clouds: broken clouds at 4000 feet AGL
Weather: no significant weather forecast for this period

 AIRPORT MAP

 RUNWAY INFORMATION
Runway 06 Runway length 7602 ft Runway width 150 ft
Runway elevation 551 ft Runway displaced threshold 0 ft Runway heading 63
Runway 24 Runway length 7602 ft Runway width 150 ft
Runway elevation 534 ft Runway displaced threshold 0 ft Runway heading 243
Runway 11 Runway length 9001 ft Runway width 150 ft
Runway elevation 618 ft Runway displaced threshold 0 ft Runway heading 122
Runway 29 Runway length 9001 ft Runway width 150 ft
Runway elevation 556 ft Runway displaced threshold 0 ft Runway heading 302
Runway 12L Runway length 9003 ft Runway width 150 ft
Runway elevation 528 ft Runway displaced threshold 0 ft Runway heading 122
Runway 30R Runway length 9003 ft Runway width 150 ft
Runway elevation 605 ft Runway displaced threshold 0 ft Runway heading 302
Runway 12R Runway length 11019 ft Runway width 200 ft
Runway elevation 540 ft Runway displaced threshold 467 ft Runway heading 122
Runway 30L Runway length 11019 ft Runway width 200 ft
Runway elevation 583 ft Runway displaced threshold 201 ft Runway heading 302

 AIRPORT FREQUENCIES
Type APP Name ST LOUIS A Frequency 28.91 MHZ
Type APP Name ST LOUIS A Frequency 120.05 MHZ
Type ATIS Name ATIS Frequency 125.025 MHZ
Type CLD Name CLNC DEL Frequency 119.5 MHZ
Type DEP Name ST LOUIS D Frequency 119.15 MHZ
Type GND Name ST LOUIS G Frequency 22.712 MHZ
Type GND Name ST LOUIS G Frequency 118.925 MHZ
Type OPS Name ANG OPS Frequency 29.79 MHZ
Type RDO Name ST LOUIS R Frequency 122.05 MHZ
Type TWR Name ST LOUIS T Frequency 28.46 MHZ
Type TWR Name ST LOUIS T Frequency 118.5 MHZ
Type UNIC Name UNICOM Frequency 122.95 MHZ

 AIRPORT NEAR NAVIGATION AIDS
Type VOR-DME Name Cardinal Frequency 116450 KHZ
Type NDB Name Zumay Frequency 404 KHZ
Type VORTAC Name St Louis Frequency 117400 KHZ